createdAt,value
2022-09-12T00:00:56.747Z,16.50
2022-09-12T00:01:56.756Z,17.80
2022-09-12T00:02:56.705Z,17.70
2022-09-12T00:03:56.688Z,17.90
2022-09-12T00:04:56.689Z,17.80
2022-09-12T00:05:56.690Z,20.10
2022-09-12T00:06:56.646Z,17.90
2022-09-12T00:07:56.654Z,19.80
2022-09-12T00:08:56.645Z,19.40
2022-09-12T00:09:56.618Z,18.70
2022-09-12T00:10:56.602Z,18.00
2022-09-12T00:11:56.595Z,18.10
2022-09-12T00:12:56.580Z,18.80
2022-09-12T00:13:56.585Z,18.90
2022-09-12T00:14:56.574Z,18.70
2022-09-12T00:15:56.555Z,18.90
2022-09-12T00:16:56.534Z,19.60
2022-09-12T00:17:56.541Z,17.90
2022-09-12T00:18:56.510Z,18.70
2022-09-12T00:19:56.519Z,18.50
2022-09-12T00:20:56.491Z,18.70
2022-09-12T00:21:56.503Z,19.20
2022-09-12T00:22:56.466Z,19.50
2022-09-12T00:23:56.598Z,19.40
2022-09-12T00:24:56.452Z,20.70
2022-09-12T00:25:56.440Z,20.50
2022-09-12T00:26:56.420Z,19.00
2022-09-12T00:27:56.425Z,18.80
2022-09-12T00:28:56.398Z,20.10
2022-09-12T00:29:56.419Z,19.50
2022-09-12T00:30:56.380Z,19.80
2022-09-12T00:31:56.466Z,19.30
2022-09-12T00:32:56.358Z,18.30
2022-09-12T00:33:56.350Z,18.60
2022-09-12T00:34:56.336Z,20.70
2022-09-12T00:35:56.340Z,18.20
2022-09-12T00:36:56.310Z,20.90
2022-09-12T00:37:56.322Z,21.50
2022-09-12T00:38:56.298Z,19.10
2022-09-12T00:39:56.348Z,20.70
2022-09-12T00:40:56.278Z,21.00
2022-09-12T00:41:56.262Z,20.20
2022-09-12T00:42:56.244Z,18.60
2022-09-12T00:43:56.237Z,20.50
2022-09-12T00:44:56.221Z,18.70
2022-09-12T00:46:03.822Z,20.30
2022-09-12T00:46:56.198Z,18.90
2022-09-12T00:47:56.190Z,20.70
2022-09-12T00:48:56.187Z,19.20
2022-09-12T00:49:56.179Z,20.50
2022-09-12T00:50:56.168Z,19.40
2022-09-12T00:51:56.140Z,22.10
2022-09-12T00:52:56.138Z,23.00
2022-09-12T00:53:56.142Z,20.30
2022-09-12T00:54:56.123Z,21.50
2022-09-12T00:55:56.122Z,20.40
2022-09-12T00:56:56.091Z,22.10
2022-09-12T00:57:56.075Z,21.80
2022-09-12T00:58:56.068Z,20.30
2022-09-12T00:59:56.056Z,19.30
2022-09-12T01:00:56.078Z,21.20
2022-09-12T01:01:56.126Z,20.70
2022-09-12T01:02:56.025Z,20.80
2022-09-12T01:03:56.007Z,21.60
2022-09-12T01:04:56.004Z,23.50
2022-09-12T01:05:55.986Z,20.90
2022-09-12T01:06:56.019Z,22.20
2022-09-12T01:07:55.981Z,23.10
2022-09-12T01:08:55.955Z,21.70
2022-09-12T01:09:55.960Z,22.50
2022-09-12T01:10:55.932Z,23.00
2022-09-12T01:11:55.927Z,21.50
2022-09-12T01:12:55.911Z,21.10
2022-09-12T01:13:55.908Z,22.00
2022-09-12T01:14:55.889Z,20.30
2022-09-12T01:15:55.876Z,21.30
2022-09-12T01:16:55.878Z,21.30
2022-09-12T01:17:55.853Z,22.50
2022-09-12T01:18:55.840Z,21.60
2022-09-12T01:19:55.840Z,21.50
2022-09-12T01:20:55.819Z,19.90
2022-09-12T01:21:55.802Z,20.70
2022-09-12T01:22:55.800Z,22.40
2022-09-12T01:23:55.779Z,22.50
2022-09-12T01:24:55.792Z,19.90
2022-09-12T01:25:55.781Z,18.40
2022-09-12T01:26:55.754Z,20.60
2022-09-12T01:27:55.734Z,21.20
2022-09-12T01:28:55.728Z,20.00
2022-09-12T01:29:55.712Z,18.50
2022-09-12T01:30:55.723Z,20.60
2022-09-12T01:31:55.728Z,20.60
2022-09-12T01:32:55.684Z,21.30
2022-09-12T01:33:55.680Z,19.60
2022-09-12T01:34:55.667Z,23.50
2022-09-12T01:35:55.647Z,21.60
2022-09-12T01:36:55.641Z,22.20
2022-09-12T01:37:55.636Z,21.20
2022-09-12T01:38:55.622Z,19.80
2022-09-12T01:39:55.681Z,21.20
2022-09-12T01:40:55.603Z,18.40
2022-09-12T01:41:55.613Z,20.00
2022-09-12T01:42:55.588Z,21.60
2022-09-12T01:43:55.570Z,19.30
2022-09-12T01:44:55.553Z,20.30
2022-09-12T01:45:55.594Z,20.50
2022-09-12T01:46:55.529Z,19.80
2022-09-12T01:47:55.524Z,20.10
2022-09-12T01:48:55.508Z,20.10
2022-09-12T01:49:55.493Z,21.90
2022-09-12T01:50:55.485Z,23.30
2022-09-12T01:51:55.470Z,21.00
2022-09-12T01:52:55.548Z,20.80
2022-09-12T01:53:55.460Z,21.10
2022-09-12T01:54:55.442Z,22.40
2022-09-12T01:55:55.427Z,24.20
2022-09-12T01:56:55.421Z,21.40
2022-09-12T01:57:55.427Z,20.80
2022-09-12T01:58:55.415Z,21.90
2022-09-12T01:59:55.384Z,23.50
2022-09-12T02:00:55.409Z,23.50
2022-09-12T02:01:55.431Z,20.30
2022-09-12T02:02:55.354Z,20.00
2022-09-12T02:03:55.355Z,18.60
2022-09-12T02:04:55.355Z,20.80
2022-09-12T02:05:55.316Z,19.90
2022-09-12T02:06:55.311Z,20.70
2022-09-12T02:07:55.316Z,20.80
2022-09-12T02:08:55.289Z,20.00
2022-09-12T02:09:55.284Z,19.70
2022-09-12T02:10:55.276Z,21.90
2022-09-12T02:11:55.251Z,21.60
2022-09-12T02:12:55.247Z,20.50
2022-09-12T02:13:55.252Z,24.00
2022-09-12T02:14:55.242Z,23.60
2022-09-12T02:15:55.207Z,22.40
2022-09-12T02:16:55.201Z,22.20
2022-09-12T02:17:55.197Z,21.70
2022-09-12T02:18:55.177Z,23.50
2022-09-12T02:19:55.171Z,25.60
2022-09-12T02:20:55.156Z,26.10
2022-09-12T02:21:55.146Z,23.50
2022-09-12T02:22:55.135Z,23.40
2022-09-12T02:23:55.146Z,24.30
2022-09-12T02:24:55.125Z,21.90
2022-09-12T02:25:55.116Z,24.80
2022-09-12T02:26:55.088Z,23.50
2022-09-12T02:27:55.073Z,22.60
2022-09-12T02:28:55.065Z,22.70
2022-09-12T02:29:55.072Z,21.60
2022-09-12T02:30:55.144Z,24.40
2022-09-12T02:31:55.048Z,22.70
2022-09-12T02:32:55.021Z,24.00
2022-09-12T02:33:55.006Z,22.70
2022-09-12T02:34:55.008Z,22.50
2022-09-12T02:35:54.985Z,24.30
2022-09-12T02:36:54.977Z,21.80
2022-09-12T02:37:54.962Z,22.20
2022-09-12T02:38:54.967Z,20.20
2022-09-12T02:39:54.974Z,22.30
2022-09-12T02:40:54.933Z,21.10
2022-09-12T02:41:54.931Z,19.70
2022-09-12T02:42:54.918Z,20.50
2022-09-12T02:43:54.898Z,22.30
2022-09-12T02:44:54.893Z,22.70
2022-09-12T02:45:54.952Z,22.10
2022-09-12T02:47:02.371Z,22.10
2022-09-12T02:47:54.863Z,22.60
2022-09-12T02:48:54.844Z,20.60
2022-09-12T02:49:54.828Z,21.00
2022-09-12T02:50:54.822Z,19.40
2022-09-12T02:51:54.806Z,21.40
2022-09-12T02:52:54.833Z,19.60
2022-09-12T02:53:54.785Z,21.30
2022-09-12T02:54:54.777Z,20.80
2022-09-12T02:55:54.775Z,19.40
2022-09-12T02:56:54.754Z,18.60
2022-09-12T02:57:54.740Z,20.90
2022-09-12T02:58:54.738Z,19.70
2022-09-12T02:59:54.717Z,22.80
2022-09-12T03:00:54.744Z,20.80
2022-09-12T03:01:54.755Z,21.10
2022-09-12T03:02:54.691Z,19.60
2022-09-12T03:03:54.674Z,20.60
2022-09-12T03:04:54.673Z,22.10
2022-09-12T03:05:54.664Z,23.70
2022-09-12T03:06:54.647Z,20.60
2022-09-12T03:07:54.630Z,21.40
2022-09-12T03:08:54.627Z,20.90
2022-09-12T03:09:54.619Z,20.50
2022-09-12T03:10:54.602Z,20.60
2022-09-12T03:11:54.599Z,21.60
2022-09-12T03:12:54.581Z,20.40
2022-09-12T03:13:54.567Z,19.50
2022-09-12T03:14:54.559Z,20.60
2022-09-12T03:15:54.553Z,21.50
2022-09-12T03:16:54.548Z,28.00
2022-09-12T03:17:54.542Z,21.50
2022-09-12T03:18:54.527Z,21.70
2022-09-12T03:19:54.499Z,23.70
2022-09-12T03:20:54.507Z,23.80
2022-09-12T03:21:54.488Z,21.20
2022-09-12T03:22:54.473Z,21.60
2022-09-12T03:23:54.455Z,20.00
2022-09-12T03:24:54.447Z,22.80
2022-09-12T03:25:54.431Z,23.30
2022-09-12T03:26:54.439Z,22.60
2022-09-12T03:27:54.422Z,19.70
2022-09-12T03:28:54.404Z,22.50
2022-09-12T03:29:54.389Z,21.20
2022-09-12T03:30:54.474Z,22.00
2022-09-12T03:31:54.373Z,21.90
2022-09-12T03:32:54.379Z,22.00
2022-09-12T03:33:54.376Z,21.70
2022-09-12T03:34:54.337Z,24.50
2022-09-12T03:35:54.320Z,22.00
2022-09-12T03:36:54.315Z,22.90
2022-09-12T03:37:54.309Z,24.60
2022-09-12T03:38:54.290Z,21.80
2022-09-12T03:39:54.319Z,22.10
2022-09-12T03:40:55.077Z,21.70
2022-09-12T03:41:54.254Z,23.70
2022-09-12T03:42:54.272Z,21.90
2022-09-12T03:43:54.232Z,21.90
2022-09-12T03:44:54.224Z,21.90
2022-09-12T03:45:54.266Z,21.60
2022-09-12T03:46:54.233Z,23.30
2022-09-12T03:47:54.200Z,23.70
2022-09-12T03:48:54.202Z,22.10
2022-09-12T03:49:54.184Z,25.20
2022-09-12T03:50:54.158Z,22.40
2022-09-12T03:51:54.142Z,24.60
2022-09-12T03:52:54.136Z,23.00
2022-09-12T03:53:54.121Z,22.50
2022-09-12T03:54:54.128Z,21.50
2022-09-12T03:55:54.101Z,24.00
2022-09-12T03:56:54.093Z,24.10
2022-09-12T03:57:54.112Z,23.70
2022-09-12T03:58:54.074Z,23.00
2022-09-12T03:59:54.065Z,20.50
2022-09-12T04:00:54.107Z,25.20
2022-09-12T04:01:54.070Z,22.50
2022-09-12T04:02:54.026Z,24.10
2022-09-12T04:03:54.012Z,22.80
2022-09-12T04:04:54.021Z,24.70
2022-09-12T04:05:54.005Z,23.50
2022-09-12T04:06:53.981Z,21.80
2022-09-12T04:07:53.978Z,23.10
2022-09-12T04:08:53.961Z,20.50
2022-09-12T04:09:53.956Z,22.30
2022-09-12T04:10:53.936Z,22.70
2022-09-12T04:11:53.920Z,22.00
2022-09-12T04:12:53.915Z,24.80
2022-09-12T04:13:53.907Z,22.20
2022-09-12T04:14:53.894Z,22.10
2022-09-12T04:15:53.888Z,23.80
2022-09-12T04:16:53.895Z,23.40
2022-09-12T04:17:53.867Z,21.10
2022-09-12T04:18:53.875Z,23.70
2022-09-12T04:19:53.831Z,21.60
2022-09-12T04:20:53.827Z,23.80
2022-09-12T04:21:53.831Z,28.10
2022-09-12T04:22:53.809Z,22.20
2022-09-12T04:23:53.802Z,25.00
2022-09-12T04:24:53.780Z,24.00
2022-09-12T04:25:53.781Z,23.00
2022-09-12T04:26:53.770Z,26.00
2022-09-12T04:27:53.755Z,23.70
2022-09-12T04:28:53.758Z,25.60
2022-09-12T04:29:53.723Z,24.50
2022-09-12T04:30:53.762Z,22.60
2022-09-12T04:31:53.698Z,24.80
2022-09-12T04:32:53.708Z,24.40
2022-09-12T04:33:53.686Z,25.50
2022-09-12T04:34:53.670Z,25.00
2022-09-12T04:35:53.654Z,24.70
2022-09-12T04:36:53.661Z,24.50
2022-09-12T05:52:56.340Z,23.10
2022-09-12T05:52:56.432Z,20.90
2022-09-12T05:53:56.415Z,21.20
2022-09-12T05:54:56.669Z,17.60
2022-09-12T05:55:56.420Z,18.70
2022-09-12T05:56:56.455Z,18.80
2022-09-12T05:57:56.403Z,19.90
2022-09-12T05:58:56.435Z,19.50
2022-09-12T05:59:56.351Z,19.90
2022-09-12T06:00:56.587Z,17.70
2022-09-12T06:01:56.423Z,18.90
2022-09-12T06:02:56.324Z,19.80
2022-09-12T06:03:56.306Z,19.30
2022-09-12T06:04:56.300Z,18.80
2022-09-12T06:05:56.294Z,20.40
2022-09-12T06:06:56.288Z,17.90
2022-09-12T06:07:56.278Z,16.90
2022-09-12T06:08:56.282Z,17.40
2022-09-12T06:09:56.244Z,17.30
2022-09-12T06:10:59.254Z,17.50
2022-09-12T06:11:57.232Z,17.00
2022-09-12T06:12:56.242Z,18.20
2022-09-12T06:13:56.238Z,19.30
2022-09-12T06:14:56.202Z,15.60
2022-09-12T06:15:56.174Z,16.20
2022-09-12T06:16:56.216Z,15.20
2022-09-12T06:17:56.809Z,15.70
2022-09-12T06:18:56.160Z,15.50
2022-09-12T06:19:56.405Z,15.50
2022-09-12T06:20:56.153Z,15.70
2022-09-12T06:21:56.125Z,15.80
2022-09-12T06:22:56.097Z,16.50
2022-09-12T06:23:56.250Z,15.30
2022-09-12T06:24:58.060Z,15.20
2022-09-12T06:25:56.170Z,15.10
2022-09-12T06:26:56.050Z,15.40
2022-09-12T06:27:56.043Z,15.10
2022-09-12T06:28:56.065Z,15.10
2022-09-12T06:29:56.026Z,15.40
2022-09-12T06:30:56.076Z,15.80
2022-09-12T06:31:56.015Z,14.40
2022-09-12T06:32:55.996Z,14.30
2022-09-12T06:33:55.983Z,14.30
2022-09-12T06:34:55.961Z,14.50
2022-09-12T06:35:55.970Z,14.50
2022-09-12T06:36:55.951Z,13.40
2022-09-12T06:37:55.942Z,13.50
2022-09-12T06:38:55.927Z,13.50
2022-09-12T06:39:56.052Z,13.10
2022-09-12T06:40:55.931Z,14.30
2022-09-12T06:41:55.917Z,14.20
2022-09-12T06:42:55.871Z,13.10
2022-09-12T06:43:55.886Z,13.30
2022-09-12T06:44:55.880Z,13.00
2022-09-12T06:45:55.884Z,12.70
2022-09-12T06:46:55.856Z,12.50
2022-09-12T06:47:56.605Z,12.70
2022-09-12T06:48:55.820Z,12.20
2022-09-12T06:49:55.801Z,11.50
2022-09-12T06:50:55.836Z,12.10
2022-09-12T06:51:56.999Z,12.00
2022-09-12T06:52:56.875Z,13.30
2022-09-12T06:53:55.767Z,13.10
2022-09-12T06:54:55.755Z,11.70
2022-09-12T06:55:55.841Z,12.10
2022-09-12T06:56:55.935Z,11.90
2022-09-12T06:57:55.710Z,11.30
2022-09-12T06:58:55.694Z,13.20
2022-09-12T06:59:55.697Z,11.20
2022-09-12T07:00:59.036Z,11.60
2022-09-12T07:01:55.767Z,11.70
2022-09-12T07:02:55.653Z,11.30
2022-09-12T07:03:55.663Z,11.90
2022-09-12T07:04:55.627Z,10.60
2022-09-12T07:05:55.644Z,11.20
2022-09-12T07:06:55.617Z,12.20
2022-09-12T07:07:55.647Z,11.20
2022-09-12T07:08:55.611Z,10.80
2022-09-12T07:09:55.595Z,11.10
2022-09-12T07:10:56.912Z,11.10
2022-09-12T07:11:55.565Z,11.30
2022-09-12T07:12:55.577Z,10.00
2022-09-12T07:13:55.533Z,10.50
2022-09-12T07:14:55.516Z,10.30
2022-09-12T07:15:55.519Z,10.30
2022-09-12T07:16:55.544Z,9.80
2022-09-12T07:17:55.506Z,11.10
2022-09-12T07:18:55.491Z,10.40
2022-09-12T07:19:56.332Z,10.50
2022-09-12T07:20:56.342Z,10.20
2022-09-12T07:21:58.664Z,11.20
2022-09-12T07:22:55.430Z,10.40
2022-09-12T07:23:55.431Z,9.90
2022-09-12T07:24:55.404Z,10.40
2022-09-12T07:25:55.409Z,9.80
2022-09-12T07:26:55.378Z,9.50
2022-09-12T07:27:55.390Z,9.10
2022-09-12T07:29:03.721Z,9.50
2022-09-12T07:29:56.360Z,9.50
2022-09-12T07:30:55.391Z,9.40
2022-09-12T07:31:55.330Z,10.00
2022-09-12T07:32:55.388Z,9.40
2022-09-12T07:33:55.423Z,10.00
2022-09-12T07:34:55.323Z,9.50
2022-09-12T07:35:55.295Z,9.30
2022-09-12T07:36:55.286Z,9.40
2022-09-12T07:37:55.367Z,9.70
2022-09-12T07:38:57.387Z,9.00
2022-09-12T07:39:55.337Z,10.10
2022-09-12T07:40:55.241Z,10.30
2022-09-12T07:41:55.257Z,9.00
2022-09-12T07:42:55.213Z,9.30
2022-09-12T07:43:55.196Z,9.20
2022-09-12T07:44:55.213Z,9.00
2022-09-12T07:45:55.600Z,9.40
2022-09-12T07:46:55.263Z,9.20
2022-09-12T07:47:55.237Z,10.50
2022-09-12T07:48:55.137Z,9.50
2022-09-12T07:49:55.173Z,8.90
2022-09-12T07:50:55.357Z,10.10
2022-09-12T07:51:55.198Z,9.60
2022-09-12T07:52:55.126Z,9.20
2022-09-12T07:54:03.910Z,9.40
2022-09-12T07:54:55.093Z,9.80
2022-09-12T07:55:55.113Z,9.90
2022-09-12T07:56:55.055Z,8.90
2022-09-12T07:57:56.874Z,9.10
2022-09-12T07:58:55.339Z,8.80
2022-09-12T07:59:55.058Z,8.60
2022-09-12T08:00:55.022Z,8.60
2022-09-12T08:01:55.895Z,8.80
2022-09-12T08:02:54.997Z,8.80
2022-09-12T08:03:54.997Z,8.70
2022-09-12T08:04:54.987Z,9.30
2022-09-12T08:05:54.971Z,9.10
2022-09-12T08:06:55.903Z,8.70
2022-09-12T08:07:57.800Z,8.50
2022-09-12T08:08:55.065Z,9.20
2022-09-12T08:09:54.927Z,8.80
2022-09-12T08:10:54.891Z,8.50
2022-09-12T08:11:54.884Z,10.10
2022-09-12T08:12:55.856Z,8.70
2022-09-12T08:13:55.837Z,8.10
2022-09-12T08:14:54.851Z,8.40
2022-09-12T08:15:54.873Z,8.00
2022-09-12T08:16:54.986Z,8.40
2022-09-12T08:17:54.834Z,7.70
2022-09-12T08:18:54.819Z,9.30
2022-09-12T08:19:54.799Z,8.60
2022-09-12T08:20:54.789Z,8.70
2022-09-12T08:21:54.894Z,10.10
2022-09-12T08:22:54.767Z,8.30
2022-09-12T08:23:55.392Z,8.50
2022-09-12T08:24:54.737Z,7.90
2022-09-12T08:25:54.730Z,9.10
2022-09-12T08:26:54.716Z,8.00
2022-09-12T08:27:54.709Z,8.80
2022-09-12T08:28:54.707Z,8.80
2022-09-12T08:29:55.417Z,9.30
2022-09-12T08:30:54.746Z,9.80
2022-09-12T08:31:57.331Z,9.00
2022-09-12T08:32:54.676Z,8.80
2022-09-12T08:33:54.655Z,9.00
2022-09-12T08:34:54.771Z,8.30
2022-09-12T08:35:54.644Z,8.50
2022-09-12T08:36:54.605Z,8.90
2022-09-12T08:37:54.607Z,8.60
2022-09-12T08:38:59.073Z,9.10
2022-09-12T08:39:55.752Z,10.10
2022-09-12T08:40:54.561Z,9.50
2022-09-12T08:41:54.604Z,8.50
2022-09-12T08:42:54.539Z,8.40
2022-09-12T08:43:56.780Z,8.70
2022-09-12T08:44:54.561Z,8.60
2022-09-12T08:45:54.601Z,8.30
2022-09-12T08:46:54.555Z,8.30
2022-09-12T08:47:54.486Z,7.30
2022-09-12T08:48:54.519Z,8.30
2022-09-12T08:49:54.491Z,8.50
2022-09-12T08:50:54.460Z,8.40
2022-09-12T08:51:54.460Z,8.10
2022-09-12T08:52:54.432Z,8.00
2022-09-12T08:53:57.430Z,8.00
2022-09-12T08:54:54.418Z,8.30
2022-09-12T08:55:54.405Z,9.20
2022-09-12T08:56:54.559Z,9.40
2022-09-12T08:57:54.400Z,8.00
2022-09-12T08:58:54.384Z,8.20
2022-09-12T08:59:54.455Z,7.60
2022-09-12T09:00:54.411Z,7.50
2022-09-12T09:01:54.357Z,7.30
2022-09-12T09:02:54.440Z,8.40
2022-09-12T09:03:54.340Z,7.40
2022-09-12T09:04:54.329Z,8.40
2022-09-12T09:05:54.302Z,7.70
2022-09-12T09:06:54.292Z,8.00
2022-09-12T09:07:54.311Z,7.30
2022-09-12T09:08:54.252Z,7.90
2022-09-12T09:09:55.027Z,7.00
2022-09-12T09:10:54.250Z,7.10
2022-09-12T09:11:54.293Z,9.40
2022-09-12T09:12:54.246Z,7.70
2022-09-12T09:13:54.243Z,8.10
2022-09-12T09:14:54.187Z,7.60
2022-09-12T09:15:54.264Z,7.40
2022-09-12T09:16:54.166Z,8.90
2022-09-12T09:17:54.228Z,8.30
2022-09-12T09:18:54.140Z,8.30
2022-09-12T09:19:54.262Z,7.50
2022-09-12T09:20:54.172Z,7.60
2022-09-12T09:21:54.148Z,7.60
2022-09-12T09:22:54.441Z,7.70
2022-09-12T09:23:54.089Z,8.60
2022-09-12T09:24:54.086Z,8.30
2022-09-12T09:25:54.068Z,8.10
2022-09-12T09:26:54.064Z,9.00
2022-09-12T09:27:54.044Z,8.70
2022-09-12T09:28:54.030Z,9.20
2022-09-12T09:29:54.103Z,8.30
2022-09-12T09:30:54.081Z,7.70
2022-09-12T09:31:54.061Z,8.90
2022-09-12T09:32:54.011Z,8.40
2022-09-12T09:33:54.039Z,9.20
2022-09-12T09:34:53.964Z,8.80
2022-09-12T09:35:53.963Z,10.40
2022-09-12T09:36:53.963Z,8.00
2022-09-12T09:37:58.727Z,8.90
2022-09-12T09:38:54.238Z,10.70
2022-09-12T09:39:54.026Z,8.80
2022-09-12T09:40:53.900Z,9.20
2022-09-12T09:41:53.894Z,9.40
2022-09-12T09:42:53.965Z,8.90
2022-09-12T09:43:54.025Z,9.10
2022-09-12T09:44:53.856Z,8.70
2022-09-12T09:45:53.897Z,10.90
2022-09-12T09:46:53.911Z,8.60
2022-09-12T09:47:53.845Z,9.00
2022-09-12T09:48:53.922Z,8.90
2022-09-12T09:49:53.940Z,10.10
2022-09-12T09:50:53.831Z,9.20
2022-09-12T09:51:56.588Z,9.50
2022-09-12T09:52:54.804Z,9.00
2022-09-12T09:53:53.780Z,8.90
2022-09-12T09:55:01.274Z,9.00
2022-09-12T09:55:53.756Z,8.60
2022-09-12T09:56:53.745Z,8.10
2022-09-12T09:57:53.727Z,9.20
2022-09-12T09:58:53.721Z,8.30
2022-09-12T09:59:53.697Z,8.10
2022-09-12T10:00:56.613Z,8.30
2022-09-12T10:01:53.689Z,8.80
2022-09-12T10:02:53.764Z,9.60
2022-09-12T10:03:53.710Z,10.30
2022-09-12T10:04:53.654Z,8.70
2022-09-12T10:05:53.655Z,8.70
2022-09-12T10:06:53.620Z,11.10
2022-09-12T10:07:53.735Z,8.70
2022-09-12T10:08:53.639Z,8.40
2022-09-12T10:09:53.594Z,8.60
2022-09-12T10:10:53.578Z,8.10
2022-09-12T10:11:53.577Z,9.30
2022-09-12T10:12:53.566Z,9.70
2022-09-12T10:13:53.553Z,9.70
2022-09-12T10:14:53.550Z,8.80
2022-09-12T10:15:53.553Z,9.00
2022-09-12T10:16:53.521Z,9.20
2022-09-12T10:17:53.509Z,9.80
2022-09-12T10:18:53.508Z,9.60
2022-09-12T10:20:10.647Z,10.30
2022-09-12T10:20:54.464Z,10.40
2022-09-12T10:21:53.474Z,11.30
2022-09-12T10:22:53.460Z,10.20
2022-09-12T10:23:53.438Z,10.10
2022-09-12T10:24:53.476Z,9.70
2022-09-12T10:25:53.432Z,9.30
2022-09-12T10:26:56.731Z,9.10
2022-09-12T10:27:53.516Z,10.40
2022-09-12T10:28:53.404Z,10.50
2022-09-12T10:29:53.461Z,9.60
2022-09-12T10:30:53.422Z,10.10
2022-09-12T10:31:53.360Z,9.10
2022-09-12T10:32:53.447Z,10.60
2022-09-12T10:33:53.536Z,9.30
2022-09-12T10:34:53.321Z,9.60
2022-09-12T10:35:53.338Z,9.70
2022-09-12T10:36:53.314Z,9.20
2022-09-12T10:37:53.302Z,9.70
2022-09-12T10:38:53.349Z,9.70
2022-09-12T10:39:53.289Z,9.30
2022-09-12T10:40:53.269Z,8.90
2022-09-12T10:41:53.245Z,9.20
2022-09-12T10:42:53.236Z,9.50
2022-09-12T10:43:53.225Z,10.60
2022-09-12T10:44:53.462Z,9.60
2022-09-12T10:45:53.233Z,8.40
2022-09-12T10:46:53.182Z,9.00
2022-09-12T10:47:53.170Z,8.40
2022-09-12T10:48:53.177Z,9.60
2022-09-12T10:49:53.163Z,8.50
2022-09-12T10:50:53.160Z,9.70
2022-09-12T10:51:53.488Z,9.10
2022-09-12T10:52:53.114Z,9.00
2022-09-12T10:53:53.135Z,9.40
2022-09-12T10:54:53.099Z,9.10
2022-09-12T10:55:53.102Z,8.70
2022-09-12T10:56:53.096Z,8.90
2022-09-12T10:57:53.059Z,9.30
2022-09-12T10:58:53.145Z,8.30
2022-09-12T10:59:53.032Z,10.40
2022-09-12T11:00:53.054Z,8.50
2022-09-12T11:01:53.052Z,8.90
2022-09-12T11:02:53.059Z,8.90
2022-09-12T11:03:53.027Z,9.80
2022-09-12T11:04:53.057Z,9.40
2022-09-12T11:05:52.969Z,9.90
2022-09-12T11:06:52.964Z,9.70
2022-09-12T11:07:52.955Z,9.30
2022-09-12T11:08:53.015Z,10.40
2022-09-12T11:09:52.945Z,8.90
2022-09-12T11:10:52.920Z,9.30
2022-09-12T11:11:52.938Z,8.60
2022-09-12T11:12:53.085Z,9.20
2022-09-12T11:13:53.006Z,9.60
2022-09-12T11:14:52.886Z,8.90
2022-09-12T11:15:52.955Z,8.50
2022-09-12T11:16:52.948Z,9.20
2022-09-12T11:17:52.867Z,8.70
2022-09-12T11:18:52.926Z,8.70
2022-09-12T11:19:52.811Z,8.00
2022-09-12T11:20:52.815Z,8.90
2022-09-12T11:21:52.791Z,9.70
2022-09-12T11:22:52.797Z,10.10
2022-09-12T11:23:52.877Z,8.80
2022-09-12T11:24:52.770Z,8.70
2022-09-12T11:25:52.756Z,9.00
2022-09-12T11:26:52.775Z,9.50
2022-09-12T11:27:52.737Z,8.20
2022-09-12T11:28:52.788Z,8.20
2022-09-12T11:29:52.734Z,7.20
2022-09-12T11:30:52.724Z,8.00
2022-09-12T11:31:52.679Z,8.60
2022-09-12T11:32:52.686Z,8.30
2022-09-12T11:33:56.540Z,7.90
2022-09-12T11:34:52.653Z,8.20
2022-09-12T11:35:55.486Z,7.80
2022-09-12T11:36:52.637Z,7.20
2022-09-12T11:37:52.629Z,9.20
2022-09-12T11:38:52.640Z,8.40
2022-09-12T11:39:55.610Z,8.80
2022-09-12T11:40:52.589Z,7.90
2022-09-12T11:41:52.576Z,7.60
2022-09-12T11:42:52.598Z,7.30
2022-09-12T11:43:53.891Z,7.30
2022-09-12T11:44:52.564Z,6.60
2022-09-12T11:45:52.572Z,6.50
2022-09-12T11:46:52.525Z,7.30
2022-09-12T11:47:53.623Z,7.70
2022-09-12T11:48:52.503Z,7.70
2022-09-12T11:49:52.488Z,6.90
2022-09-12T11:50:52.481Z,7.70
2022-09-12T11:51:52.486Z,8.30
2022-09-12T11:52:52.472Z,7.20
2022-09-12T11:53:52.458Z,6.10
2022-09-12T11:54:53.962Z,6.10
2022-09-12T11:56:00.003Z,5.10
2022-09-12T11:56:52.418Z,6.20
2022-09-12T11:57:52.414Z,6.20
2022-09-12T11:58:52.405Z,6.20
2022-09-12T11:59:52.378Z,5.40
2022-09-12T12:00:52.391Z,6.40
2022-09-12T12:01:52.356Z,6.40
2022-09-12T12:02:52.376Z,6.00
2022-09-12T12:03:52.396Z,6.90
2022-09-12T12:04:52.426Z,6.80
2022-09-12T12:05:52.314Z,6.40
2022-09-12T12:06:52.327Z,5.10
2022-09-12T12:07:52.296Z,6.80
2022-09-12T12:08:52.301Z,6.40
2022-09-12T12:09:52.293Z,6.80
2022-09-12T12:10:52.273Z,5.50
2022-09-12T12:11:52.249Z,5.60
2022-09-12T12:12:52.242Z,5.40
2022-09-12T12:13:52.242Z,5.40
2022-09-12T12:14:52.223Z,6.30
2022-09-12T12:15:52.263Z,5.50
2022-09-12T12:16:52.217Z,6.10
2022-09-12T12:17:52.201Z,6.00
2022-09-12T12:18:52.202Z,5.40
2022-09-12T12:19:52.162Z,5.80
2022-09-12T12:20:52.172Z,6.20
2022-09-12T12:21:52.140Z,5.80
2022-09-12T12:22:52.149Z,6.80
2022-09-12T12:23:52.118Z,6.20
2022-09-12T12:24:52.114Z,5.50
2022-09-12T12:25:52.114Z,5.50
2022-09-12T12:26:52.092Z,6.50
2022-09-12T12:27:52.093Z,4.50
2022-09-12T12:28:52.097Z,4.50
2022-09-12T12:29:52.060Z,6.20
2022-09-12T12:30:52.073Z,5.30
2022-09-12T12:31:52.034Z,5.20
2022-09-12T12:32:53.065Z,5.60
2022-09-12T12:33:52.015Z,5.70
2022-09-12T12:34:52.009Z,4.40
2022-09-12T12:35:52.003Z,5.70
2022-09-12T12:36:51.986Z,5.40
2022-09-12T12:37:51.970Z,5.10
2022-09-12T12:38:51.965Z,6.20
2022-09-12T12:39:52.157Z,6.30
2022-09-12T12:40:51.941Z,6.00
2022-09-12T12:41:51.927Z,5.30
2022-09-12T12:42:51.921Z,6.70
2022-09-12T12:43:52.193Z,6.00
2022-09-12T12:44:51.926Z,6.10
2022-09-12T12:45:51.948Z,6.10
2022-09-12T12:46:51.913Z,6.40
2022-09-12T12:47:51.880Z,4.90
2022-09-12T12:48:51.967Z,4.80
2022-09-12T12:49:51.882Z,4.90
2022-09-12T12:50:51.835Z,4.50
2022-09-12T12:51:51.833Z,4.90
2022-09-12T12:52:51.815Z,5.20
2022-09-12T12:53:51.931Z,4.90
2022-09-12T12:54:51.790Z,5.60
2022-09-12T12:55:51.778Z,5.00
2022-09-12T12:56:51.783Z,6.00
2022-09-12T12:57:51.861Z,4.40
2022-09-12T12:58:51.753Z,4.70
2022-09-12T12:59:51.734Z,4.10
2022-09-12T13:00:51.726Z,4.60
2022-09-12T13:01:55.130Z,4.20
2022-09-12T13:02:52.045Z,4.80
2022-09-12T13:03:51.716Z,5.10
2022-09-12T13:04:51.713Z,5.20
2022-09-12T13:05:52.074Z,5.80
2022-09-12T13:06:51.673Z,5.40
2022-09-12T13:07:51.652Z,6.00
2022-09-12T13:08:51.650Z,5.00
2022-09-12T13:09:51.624Z,5.60
2022-09-12T13:10:51.668Z,5.50
2022-09-12T13:11:51.613Z,5.80
2022-09-12T13:12:51.698Z,6.00
2022-09-12T13:13:51.581Z,5.30
2022-09-12T13:14:51.575Z,6.00
2022-09-12T13:15:51.642Z,5.40
2022-09-12T13:16:51.554Z,5.80
2022-09-12T13:17:51.542Z,5.50
2022-09-12T13:18:51.552Z,4.80
2022-09-12T13:20:10.648Z,4.80
2022-09-12T13:20:52.604Z,4.20
2022-09-12T13:21:51.495Z,4.10
2022-09-12T13:22:51.488Z,4.10
2022-09-12T13:23:51.485Z,3.80
2022-09-12T13:24:51.503Z,4.40
2022-09-12T13:25:51.452Z,4.90
2022-09-12T13:26:51.515Z,4.50
2022-09-12T13:27:51.433Z,4.40
2022-09-12T13:28:51.425Z,4.50
2022-09-12T13:29:51.438Z,4.40
2022-09-12T13:30:51.480Z,3.90
2022-09-12T13:31:51.383Z,4.00
2022-09-12T13:32:51.380Z,3.70
2022-09-12T13:33:51.463Z,4.10
2022-09-12T13:34:51.408Z,4.70
2022-09-12T13:35:51.359Z,4.10
2022-09-12T13:36:51.371Z,5.60
2022-09-12T13:37:51.582Z,4.70
2022-09-12T13:38:51.360Z,4.70
2022-09-12T13:39:51.369Z,5.10
2022-09-12T13:40:51.314Z,4.50
2022-09-12T13:41:51.275Z,5.50
2022-09-12T13:42:51.279Z,5.30
2022-09-12T13:43:51.258Z,5.10
2022-09-12T13:44:51.280Z,4.10
2022-09-12T13:45:51.264Z,4.10
2022-09-12T13:46:51.224Z,4.30
2022-09-12T13:47:54.244Z,4.40
2022-09-12T13:48:52.257Z,4.40
2022-09-12T13:49:51.198Z,4.60
2022-09-12T13:50:51.177Z,4.20
2022-09-12T13:51:51.162Z,4.90
2022-09-12T13:52:51.179Z,3.90
2022-09-12T13:53:51.143Z,4.20
2022-09-12T13:54:51.148Z,6.20
2022-09-12T13:55:51.224Z,5.10
2022-09-12T13:56:58.633Z,4.00
2022-09-12T13:57:51.095Z,4.30
2022-09-12T13:58:51.089Z,4.00
2022-09-12T13:59:51.074Z,3.70
2022-09-12T14:00:51.080Z,4.30
2022-09-12T14:01:51.146Z,3.70
2022-09-12T14:02:51.075Z,4.30
2022-09-12T14:03:51.080Z,3.90
2022-09-12T14:04:51.026Z,3.90
2022-09-12T14:05:51.008Z,3.40
2022-09-12T14:06:51.004Z,3.80
2022-09-12T14:07:51.001Z,3.60
2022-09-12T14:08:51.004Z,4.30
2022-09-12T14:09:50.995Z,4.10
2022-09-12T14:10:50.976Z,4.40
2022-09-12T14:11:50.950Z,4.80
2022-09-12T14:12:50.945Z,4.90
2022-09-12T14:13:50.980Z,5.00
2022-09-12T14:14:50.917Z,4.10
2022-09-12T14:15:50.921Z,4.50
2022-09-12T14:16:50.914Z,3.70
2022-09-12T14:17:50.878Z,4.20
2022-09-12T14:18:50.868Z,3.80
2022-09-12T14:19:50.851Z,3.80